Time;durP1;ratioP1;P1;durP2;ratioP2;P2;SDS_P1;SDS_P2;PMS_P1;PMS_P2;Temp;Humidity;BMP_temperature;BMP_pressure;BME280_temperature;BME280_humidity;BME280_pressure;Samples;Min_cycle;Max_cycle;Signal;HPM_P1;HPM_P2
2022/05/24 00:00:48;;;;;;;10.43;3.55;;;;;;;;;;5028400;28;20557;-77
2022/05/24 00:03:15;;;;;;;8.95;3.80;;;;;;;;;;5019818;28;20073;-78
2022/05/24 00:05:42;;;;;;;7.78;3.17;;;;;;;;;;5020199;28;20096;-77
2022/05/24 00:08:09;;;;;;;8.90;3.90;;;;;;;;;;5018836;28;20123;-77
2022/05/24 00:10:36;;;;;;;9.13;3.28;;;;;;;;;;5031705;28;20077;-78
2022/05/24 00:13:05;;;;;;;9.85;3.38;;;;;;;;;;5039495;28;20112;-77
2022/05/24 00:15:33;;;;;;;6.45;2.70;;;;;;;;;;5038656;28;20053;-77
2022/05/24 00:18:02;;;;;;;11.57;3.40;;;;;;;;;;5041288;28;20050;-78
2022/05/24 00:20:32;;;;;;;10.38;3.33;;;;;;;;;;5029294;28;20046;-77
2022/05/24 00:22:59;;;;;;;7.20;3.28;;;;;;;;;;5022234;28;20049;-78
2022/05/24 00:25:27;;;;;;;9.35;3.20;;;;;;;;;;5021431;28;20121;-78
2022/05/24 00:27:54;;;;;;;8.13;3.25;;;;;;;;;;5030951;28;20060;-77
2022/05/24 00:30:22;;;;;;;8.18;3.55;;;;;;;;;;5041886;28;20048;-78
2022/05/24 00:32:49;;;;;;;10.63;4.03;;;;;;;;;;5032073;28;20049;-78
2022/05/24 00:35:17;;;;;;;7.55;3.63;;;;;;;;;;5021060;28;20046;-78
2022/05/24 00:37:45;;;;;;;10.57;4.22;;;;;;;;;;5041142;28;20049;-78
2022/05/24 00:40:23;;;;;;;10.55;4.57;;;;;;;;;;5040415;28;20046;-78
2022/05/24 00:42:51;;;;;;;8.25;4.15;;;;;;;;;;5032236;28;20057;-78
2022/05/24 00:45:24;;;;;;;11.27;4.32;;;;;;;;;;5021436;28;20049;-77
2022/05/24 00:47:54;;;;;;;9.77;4.07;;;;;;;;;;5035457;28;20048;-77
2022/05/24 00:50:25;;;;;;;9.25;3.85;;;;;;;;;;5039965;28;20057;-77
2022/05/24 00:52:56;;;;;;;;;;;;;;;;;;5040178;28;20049;-77
2022/05/24 00:55:24;;;;;;;12.73;4.32;;;;;;;;;;5041042;28;19921;-78
2022/05/24 00:58:00;;;;;;;9.32;4.80;;;;;;;;;;5039701;28;20045;-76
2022/05/24 01:00:29;;;;;;;11.98;5.25;;;;;;;;;;5035353;28;20082;-78
2022/05/24 01:02:55;;;;;;;11.10;4.97;;;;;;;;;;5042526;28;20048;-76
2022/05/24 01:05:24;;;;;;;10.25;5.03;;;;;;;;;;5047351;28;20050;-78
2022/05/24 01:07:51;;;;;;;13.13;5.93;;;;;;;;;;5034114;28;20050;-77
2022/05/24 01:10:21;;;;;;;10.52;5.15;;;;;;;;;;5038902;28;20052;-77
2022/05/24 01:12:54;;;;;;;9.95;4.38;;;;;;;;;;5053927;28;20053;-77
2022/05/24 01:15:22;;;;;;;12.05;4.72;;;;;;;;;;5047090;28;20041;-77
2022/05/24 01:17:52;;;;;;;11.75;5.97;;;;;;;;;;5031834;28;20053;-78
2022/05/24 01:20:20;;;;;;;10.27;4.75;;;;;;;;;;5022083;28;20080;-78
2022/05/24 01:23:11;;;;;;;10.48;4.82;;;;;;;;;;5020264;28;20107;-77
2022/05/24 01:25:47;;;;;;;9.02;4.40;;;;;;;;;;5019314;28;20072;-78
2022/05/24 01:28:22;;;;;;;10.00;4.00;;;;;;;;;;5019661;28;20092;-77
2022/05/24 01:30:49;;;;;;;8.98;4.43;;;;;;;;;;5027057;28;20109;-77
2022/05/24 01:36:10;;;;;;;7.85;4.22;;;;;;;;;;5029879;28;20061;-78
2022/05/24 01:38:39;;;;;;;10.25;4.75;;;;;;;;;;5029917;28;20049;-76
2022/05/24 01:41:07;;;;;;;12.88;5.55;;;;;;;;;;5044941;28;20045;-76
2022/05/24 01:43:39;;;;;;;10.07;5.03;;;;;;;;;;5050422;28;20080;-78
2022/05/24 01:46:10;;;;;;;11.93;5.45;;;;;;;;;;5035647;28;20413;-77
2022/05/24 01:48:41;;;;;;;11.95;5.72;;;;;;;;;;5023961;28;20492;-78
2022/05/24 01:51:11;;;;;;;10.02;4.25;;;;;;;;;;5024466;28;20056;-78
2022/05/24 01:53:42;;;;;;;11.30;5.00;;;;;;;;;;5023989;28;20053;-78
2022/05/24 01:56:13;;;;;;;10.55;5.05;;;;;;;;;;5034685;28;20041;-77
2022/05/24 01:58:44;;;;;;;9.85;5.00;;;;;;;;;;5043558;28;20090;-78
2022/05/24 02:01:18;;;;;;;10.73;4.82;;;;;;;;;;5033436;28;20046;-78
2022/05/24 02:03:45;;;;;;;10.45;4.57;;;;;;;;;;5027497;28;20052;-78
2022/05/24 02:06:20;;;;;;;13.98;5.72;;;;;;;;;;5035854;28;20467;-77
2022/05/24 02:08:47;;;;;;;10.07;5.20;;;;;;;;;;5044756;28;20045;-78
2022/05/24 02:11:16;;;;;;;11.63;5.25;;;;;;;;;;5030828;28;20046;-77
2022/05/24 02:13:48;;;;;;;12.10;5.57;;;;;;;;;;5026117;28;20112;-78
2022/05/24 02:16:21;;;;;;;11.02;5.40;;;;;;;;;;5039126;28;20568;-78
2022/05/24 02:18:49;;;;;;;12.45;5.53;;;;;;;;;;5044617;28;20045;-78
2022/05/24 02:21:16;;;;;;;10.77;4.57;;;;;;;;;;5030890;28;20049;-78
2022/05/24 02:23:45;;;;;;;13.70;5.47;;;;;;;;;;5027447;28;20053;-78
2022/05/24 02:26:14;;;;;;;14.73;6.28;;;;;;;;;;5026991;28;20100;-78
2022/05/24 02:28:41;;;;;;;11.30;4.68;;;;;;;;;;5026762;28;20049;-77
2022/05/24 02:31:13;;;;;;;12.13;6.03;;;;;;;;;;5024474;28;20073;-78
2022/05/24 02:33:40;;;;;;;12.35;5.55;;;;;;;;;;5025228;28;20535;-77
2022/05/24 02:36:08;;;;;;;11.98;5.38;;;;;;;;;;5039513;28;20045;-77
2022/05/24 02:38:35;;;;;;;13.60;5.88;;;;;;;;;;5038414;28;20107;-76
2022/05/24 02:43:47;;;;;;;12.48;5.60;;;;;;;;;;5038686;28;20107;-77
2022/05/24 02:46:16;;;;;;;11.00;5.38;;;;;;;;;;5038318;28;20133;-77
2022/05/24 02:48:43;;;;;;;11.52;5.72;;;;;;;;;;5039065;28;20635;-77
2022/05/24 02:51:11;;;;;;;16.38;6.88;;;;;;;;;;5037678;28;20084;-77
2022/05/24 02:53:39;;;;;;;11.18;5.22;;;;;;;;;;5039224;28;20041;-77
2022/05/24 02:56:06;;;;;;;10.80;4.95;;;;;;;;;;5025047;28;20077;-76
2022/05/24 02:58:34;;;;;;;9.98;5.38;;;;;;;;;;5020309;28;20081;-77
2022/05/24 03:01:01;;;;;;;11.68;4.68;;;;;;;;;;5034863;28;20447;-77
2022/05/24 03:03:29;;;;;;;8.82;4.57;;;;;;;;;;5036581;28;20073;-77
2022/05/24 03:05:56;;;;;;;8.55;4.22;;;;;;;;;;5035685;28;20042;-77
2022/05/24 03:11:09;;;;;;;8.77;4.78;;;;;;;;;;5035363;28;20514;-77
2022/05/24 03:16:20;;;;;;;8.57;4.55;;;;;;;;;;5033434;28;20060;-77
2022/05/24 03:18:48;;;;;;;12.23;4.95;;;;;;;;;;5035090;28;20088;-77
2022/05/24 03:21:15;;;;;;;11.43;5.30;;;;;;;;;;5017496;28;20084;-77
2022/05/24 03:23:42;;;;;;;13.38;5.72;;;;;;;;;;5015528;28;20084;-76
2022/05/24 03:26:10;;;;;;;13.82;5.63;;;;;;;;;;5016457;28;20046;-77
2022/05/24 03:28:37;;;;;;;12.48;4.93;;;;;;;;;;5015330;28;20054;-77
2022/05/24 03:31:06;;;;;;;11.00;5.05;;;;;;;;;;5038296;28;20075;-77
2022/05/24 03:33:33;;;;;;;10.32;4.20;;;;;;;;;;5040390;28;20049;-78
2022/05/24 03:36:01;;;;;;;8.77;4.30;;;;;;;;;;5024420;28;20100;-77
2022/05/24 03:38:28;;;;;;;9.70;4.70;;;;;;;;;;5022076;28;20046;-77
2022/05/24 03:40:55;;;;;;;9.90;4.78;;;;;;;;;;5037609;28;20049;-77
2022/05/24 03:43:22;;;;;;;9.90;4.85;;;;;;;;;;5041629;28;20050;-77
2022/05/24 03:45:49;;;;;;;10.23;4.80;;;;;;;;;;5025228;28;20052;-78
2022/05/24 03:48:16;;;;;;;11.25;4.93;;;;;;;;;;5041541;28;20053;-78
2022/05/24 03:50:43;;;;;;;11.00;4.80;;;;;;;;;;5041102;28;20057;-78
2022/05/24 03:53:11;;;;;;;6.43;4.05;;;;;;;;;;5040998;28;20050;-78
2022/05/24 03:55:38;;;;;;;9.77;4.88;;;;;;;;;;5039973;28;20053;-78
2022/05/24 03:58:04;;;;;;;8.40;4.28;;;;;;;;;;5040780;28;20075;-78
2022/05/24 04:00:34;;;;;;;11.02;4.50;;;;;;;;;;5026504;28;20057;-77
2022/05/24 04:03:01;;;;;;;10.18;4.90;;;;;;;;;;5021509;28;20049;-77
2022/05/24 04:05:29;;;;;;;11.85;5.22;;;;;;;;;;5021101;28;20041;-78
2022/05/24 04:07:56;;;;;;;10.38;4.97;;;;;;;;;;5020225;28;20096;-78
2022/05/24 04:10:24;;;;;;;10.40;5.22;;;;;;;;;;5036105;28;20053;-78
2022/05/24 04:12:51;;;;;;;14.70;6.07;;;;;;;;;;5040719;28;20057;-77
2022/05/24 04:15:19;;;;;;;9.73;5.05;;;;;;;;;;5028256;28;20042;-78
2022/05/24 04:17:47;;;;;;;10.35;4.93;;;;;;;;;;5024190;28;20153;-78
2022/05/24 04:20:15;;;;;;;7.70;4.07;;;;;;;;;;5024823;28;20046;-77
2022/05/24 04:22:43;;;;;;;10.50;4.82;;;;;;;;;;5032992;28;20050;-77
2022/05/24 04:25:10;;;;;;;9.50;4.55;;;;;;;;;;5035710;28;20030;-77
2022/05/24 04:27:39;;;;;;;7.22;3.60;;;;;;;;;;5035648;28;20049;-77
2022/05/24 04:30:08;;;;;;;8.32;4.32;;;;;;;;;;5029921;28;20501;-78
2022/05/24 04:32:35;;;;;;;9.07;5.07;;;;;;;;;;5028335;28;20413;-77
2022/05/24 04:35:01;;;;;;;9.02;4.05;;;;;;;;;;5046989;28;20586;-77
2022/05/24 04:37:28;;;;;;;8.80;4.25;;;;;;;;;;5046649;28;20068;-78
2022/05/24 04:39:55;;;;;;;8.45;3.72;;;;;;;;;;5026605;28;20045;-78
2022/05/24 04:42:22;;;;;;;9.85;3.80;;;;;;;;;;5026339;28;20224;-77
2022/05/24 04:44:52;;;;;;;12.35;4.38;;;;;;;;;;5031200;28;20050;-77
2022/05/24 04:47:20;;;;;;;10.23;5.40;;;;;;;;;;5039056;28;20095;-79
2022/05/24 04:49:50;;;;;;;11.20;5.38;;;;;;;;;;5038708;28;20045;-78
2022/05/24 04:52:17;;;;;;;9.60;4.88;;;;;;;;;;5044249;28;20042;-78
2022/05/24 04:54:45;;;;;;;11.10;5.30;;;;;;;;;;5030519;28;20424;-79
2022/05/24 04:57:13;;;;;;;10.63;4.97;;;;;;;;;;5023196;28;20136;-79
2022/05/24 04:59:40;;;;;;;15.10;6.07;;;;;;;;;;5019359;28;20050;-77
2022/05/24 05:02:09;;;;;;;11.48;5.43;;;;;;;;;;5014374;28;20563;-76
2022/05/24 05:04:36;;;;;;;9.93;5.72;;;;;;;;;;5022915;28;20084;-77
2022/05/24 05:07:03;;;;;;;11.23;5.38;;;;;;;;;;5032098;28;20053;-77
2022/05/24 05:09:34;;;;;;;16.35;5.50;;;;;;;;;;5035160;28;20441;-77
2022/05/24 05:12:02;;;;;;;11.82;5.43;;;;;;;;;;5033025;28;20563;-76
2022/05/24 05:14:29;;;;;;;13.32;5.18;;;;;;;;;;5033334;28;20172;-79
2022/05/24 05:16:56;;;;;;;11.25;5.55;;;;;;;;;;5017339;28;20050;-77
2022/05/24 05:19:24;;;;;;;12.82;5.25;;;;;;;;;;5028496;28;20077;-77
2022/05/24 05:21:51;;;;;;;10.23;5.10;;;;;;;;;;5036319;28;20050;-77
2022/05/24 05:24:17;;;;;;;13.15;5.88;;;;;;;;;;5035580;28;20045;-77
2022/05/24 05:26:44;;;;;;;14.23;6.32;;;;;;;;;;5031822;28;20053;-77
2022/05/24 05:29:11;;;;;;;12.57;6.22;;;;;;;;;;5015811;28;20088;-78
2022/05/24 05:31:37;;;;;;;9.50;4.70;;;;;;;;;;5024800;28;20037;-77
2022/05/24 05:34:04;;;;;;;11.07;4.10;;;;;;;;;;5032128;28;20076;-77
2022/05/24 05:36:34;;;;;;;7.20;4.07;;;;;;;;;;5026483;28;20046;-77
2022/05/24 05:39:01;;;;;;;7.47;3.75;;;;;;;;;;5013249;28;20474;-78
2022/05/24 05:41:29;;;;;;;7.95;3.83;;;;;;;;;;5021421;28;20095;-77
2022/05/24 05:43:57;;;;;;;8.50;4.10;;;;;;;;;;5032402;28;20050;-77
2022/05/24 05:46:24;;;;;;;12.55;5.05;;;;;;;;;;5027410;28;20159;-77
2022/05/24 05:48:50;;;;;;;8.63;4.28;;;;;;;;;;5012377;28;20144;-77
2022/05/24 05:51:19;;;;;;;8.13;4.25;;;;;;;;;;5011941;28;20082;-77
2022/05/24 05:53:47;;;;;;;8.48;4.05;;;;;;;;;;5027672;28;20045;-77
2022/05/24 05:56:16;;;;;;;10.13;4.13;;;;;;;;;;5038481;28;20445;-78
2022/05/24 05:58:43;;;;;;;7.53;3.40;;;;;;;;;;5031800;28;20488;-78
2022/05/24 06:01:15;;;;;;;5.95;3.22;;;;;;;;;;5038912;28;20045;-77
2022/05/24 06:03:42;;;;;;;8.65;4.53;;;;;;;;;;5034232;28;20059;-77
2022/05/24 06:06:11;;;;;;;7.72;3.42;;;;;;;;;;5034461;28;20076;-77
2022/05/24 06:08:38;;;;;;;8.82;3.47;;;;;;;;;;5047126;28;20050;-77
2022/05/24 06:11:06;;;;;;;7.32;3.90;;;;;;;;;;5043528;28;20100;-77
2022/05/24 06:13:33;;;;;;;5.65;2.67;;;;;;;;;;5040348;28;20072;-78
2022/05/24 06:16:00;;;;;;;7.43;3.95;;;;;;;;;;5024950;28;20070;-78
2022/05/24 06:18:27;;;;;;;7.63;3.70;;;;;;;;;;5018403;28;20046;-78
2022/05/24 06:20:54;;;;;;;6.85;3.08;;;;;;;;;;5026661;28;20080;-77
2022/05/24 06:23:21;;;;;;;8.15;3.42;;;;;;;;;;5018682;28;20081;-77
2022/05/24 06:25:47;;;;;;;9.07;3.85;;;;;;;;;;5014736;28;20069;-77
2022/05/24 06:28:17;;;;;;;8.90;3.58;;;;;;;;;;5016489;28;20050;-77
2022/05/24 06:30:44;;;;;;;6.80;3.75;;;;;;;;;;5028250;28;20447;-77
2022/05/24 06:33:12;;;;;;;7.28;3.58;;;;;;;;;;5038237;28;20057;-77
2022/05/24 06:35:40;;;;;;;7.43;3.80;;;;;;;;;;5033888;28;20752;-77
2022/05/24 06:38:07;;;;;;;8.65;3.72;;;;;;;;;;5036383;28;20068;-76
2022/05/24 06:40:35;;;;;;;7.03;3.05;;;;;;;;;;5024461;28;20442;-77
2022/05/24 06:43:02;;;;;;;6.53;3.08;;;;;;;;;;5018607;28;20839;-77
2022/05/24 06:45:30;;;;;;;7.57;3.85;;;;;;;;;;5037911;28;20064;-77
2022/05/24 06:47:57;;;;;;;7.38;3.60;;;;;;;;;;5034230;28;20037;-77
2022/05/24 06:50:25;;;;;;;7.68;3.33;;;;;;;;;;5036953;28;20450;-76
2022/05/24 06:52:54;;;;;;;8.60;3.67;;;;;;;;;;5033207;28;20480;-77
2022/05/24 06:55:21;;;;;;;7.90;4.05;;;;;;;;;;5018151;28;20133;-77
2022/05/24 06:57:48;;;;;;;8.75;3.67;;;;;;;;;;5020879;28;20495;-77
2022/05/24 07:03:06;;;;;;;8.45;4.10;;;;;;;;;;5035967;28;20534;-78
2022/05/24 07:05:33;;;;;;;;;;;;;;;;;;5030494;28;20045;-79
2022/05/24 07:08:01;;;;;;;9.15;3.58;;;;;;;;;;5033769;28;19967;-78
2022/05/24 07:10:28;;;;;;;7.30;3.90;;;;;;;;;;5031896;28;20516;-78
2022/05/24 07:13:00;;;;;;;8.50;4.28;;;;;;;;;;5033272;28;20069;-77
2022/05/24 07:15:27;;;;;;;10.50;4.30;;;;;;;;;;5033085;28;20509;-77
2022/05/24 07:17:54;;;;;;;10.15;4.00;;;;;;;;;;5033230;28;20072;-77
2022/05/24 07:20:23;;;;;;;6.82;4.05;;;;;;;;;;5033251;28;20050;-78
2022/05/24 07:22:49;;;;;;;7.63;3.83;;;;;;;;;;5033774;28;20041;-77
2022/05/24 07:25:17;;;;;;;6.85;3.70;;;;;;;;;;5033506;28;20447;-77
2022/05/24 07:27:44;;;;;;;6.80;3.80;;;;;;;;;;5033527;28;20042;-77
2022/05/24 07:30:12;;;;;;;7.63;4.03;;;;;;;;;;5034834;28;20084;-78
2022/05/24 07:32:39;;;;;;;7.65;4.63;;;;;;;;;;5033843;28;20515;-77
2022/05/24 07:35:06;;;;;;;8.70;4.68;;;;;;;;;;5032684;28;20134;-77
2022/05/24 07:37:34;;;;;;;6.93;4.88;;;;;;;;;;5030587;28;20053;-77
2022/05/24 07:48:15;;;;;;;7.88;3.80;;;;;;;;;;5032733;28;20128;-78
2022/05/24 07:50:42;;;;;;;8.82;4.03;;;;;;;;;;5036927;28;20045;-79
2022/05/24 07:53:11;;;;;;;9.98;4.75;;;;;;;;;;5037844;28;20686;-78
2022/05/24 07:55:38;;;;;;;9.25;4.75;;;;;;;;;;5037179;28;20467;-78
2022/05/24 07:58:05;;;;;;;9.48;4.00;;;;;;;;;;5038968;28;20069;-77
2022/05/24 08:00:32;;;;;;;8.52;4.05;;;;;;;;;;5037278;28;20105;-77
2022/05/24 08:03:01;;;;;;;8.10;4.40;;;;;;;;;;5019980;28;20448;-78
2022/05/24 08:05:31;;;;;;;8.18;4.00;;;;;;;;;;5018817;28;20049;-77
2022/05/24 08:07:58;;;;;;;10.35;4.65;;;;;;;;;;5033879;28;20420;-79
2022/05/24 08:10:26;;;;;;;7.70;4.20;;;;;;;;;;5033001;28;20142;-77
2022/05/24 08:12:53;;;;;;;11.93;5.10;;;;;;;;;;5033776;28;20129;-78
2022/05/24 08:15:20;;;;;;;9.77;4.85;;;;;;;;;;5032504;28;20046;-76
2022/05/24 08:17:46;;;;;;;8.60;4.30;;;;;;;;;;5015430;28;20493;-77
2022/05/24 08:20:14;;;;;;;7.75;4.40;;;;;;;;;;5012920;28;20103;-77
2022/05/24 08:22:42;;;;;;;10.38;4.40;;;;;;;;;;5029252;28;20413;-79
2022/05/24 08:25:11;;;;;;;6.70;4.80;;;;;;;;;;5033787;28;20038;-77
2022/05/24 08:27:40;;;;;;;10.53;4.73;;;;;;;;;;5020319;28;20050;-78
2022/05/24 08:30:09;;;;;;;7.13;4.25;;;;;;;;;;5027786;28;20049;-76
2022/05/24 08:32:36;;;;;;;10.48;4.78;;;;;;;;;;5035746;28;20054;-79
2022/05/24 08:35:04;;;;;;;7.05;4.07;;;;;;;;;;5029292;28;20053;-75
2022/05/24 08:37:31;;;;;;;6.30;4.55;;;;;;;;;;5032573;28;20073;-75
2022/05/24 08:39:59;;;;;;;7.75;3.95;;;;;;;;;;5031388;28;20684;-75
2022/05/24 08:42:34;;;;;;;7.95;4.28;;;;;;;;;;5032584;28;20050;-75
2022/05/24 08:50:41;;;;;;;7.88;4.15;;;;;;;;;;5012595;28;20576;-75
2022/05/24 08:53:11;;;;;;;6.47;4.10;;;;;;;;;;5012898;28;20041;-76
2022/05/24 08:55:39;;;;;;;7.57;3.50;;;;;;;;;;5012695;28;20061;-74
2022/05/24 08:58:13;;;;;;;8.10;3.50;;;;;;;;;;5012789;28;20448;-75
2022/05/24 09:00:43;;;;;;;9.63;3.78;;;;;;;;;;5011121;28;20085;-77
2022/05/24 09:03:11;;;;;;;5.38;3.45;;;;;;;;;;5021448;28;20103;-73
2022/05/24 09:05:39;;;;;;;5.75;2.95;;;;;;;;;;5030446;28;20045;-73
2022/05/24 09:08:17;;;;;;;9.82;3.72;;;;;;;;;;5020755;28;20074;-73
2022/05/24 09:10:49;;;;;;;5.97;3.03;;;;;;;;;;5011189;28;20089;-74
2022/05/24 09:13:32;;;;;;;5.80;3.00;;;;;;;;;;5011646;28;20523;-73
2022/05/24 09:16:05;;;;;;;8.52;3.35;;;;;;;;;;5013529;28;20049;-73
2022/05/24 09:18:41;;;;;;;10.75;4.18;;;;;;;;;;5030414;28;20090;-73
2022/05/24 09:21:19;;;;;;;6.18;2.70;;;;;;;;;;5026269;28;20070;-75
2022/05/24 09:23:48;;;;;;;7.35;3.75;;;;;;;;;;5010504;28;20535;-73
2022/05/24 09:26:20;;;;;;;8.25;3.25;;;;;;;;;;5011189;28;20102;-79
2022/05/24 09:28:52;;;;;;;6.10;4.10;;;;;;;;;;5022136;28;20095;-76
2022/05/24 09:31:26;;;;;;;7.60;3.40;;;;;;;;;;5037061;28;20046;-75
2022/05/24 09:33:56;;;;;;;6.90;3.00;;;;;;;;;;5029621;28;20084;-75
2022/05/24 09:36:32;;;;;;;5.50;2.75;;;;;;;;;;5030432;28;20045;-74
2022/05/24 09:39:00;;;;;;;8.25;2.72;;;;;;;;;;5025901;28;20096;-75
2022/05/24 09:41:27;;;;;;;22.95;15.15;;;;;;;;;;5029901;28;20096;-76
2022/05/24 09:44:04;;;;;;;34.05;24.27;;;;;;;;;;5026843;28;20540;-75
2022/05/24 09:46:33;;;;;;;17.23;11.18;;;;;;;;;;5015842;28;20157;-75
2022/05/24 09:49:03;;;;;;;8.82;4.25;;;;;;;;;;5030611;28;20045;-75
2022/05/24 09:51:35;;;;;;;6.10;3.20;;;;;;;;;;5028425;28;20049;-74
2022/05/24 09:54:06;;;;;;;6.78;3.90;;;;;;;;;;5025766;28;20056;-74
2022/05/24 09:56:33;;;;;;;5.97;3.45;;;;;;;;;;5030396;28;20100;-74
2022/05/24 09:59:02;;;;;;;6.35;3.40;;;;;;;;;;5031049;28;20049;-75
2022/05/24 10:01:36;;;;;;;9.40;4.57;;;;;;;;;;5024075;28;20125;-75
2022/05/24 10:04:19;;;;;;;8.23;4.30;;;;;;;;;;5014583;28;20495;-77
2022/05/24 10:06:55;;;;;;;7.40;4.00;;;;;;;;;;5033631;28;20050;-74
2022/05/24 10:09:40;;;;;;;7.30;3.63;;;;;;;;;;5020162;28;20045;-74
2022/05/24 10:12:13;;;;;;;7.43;4.40;;;;;;;;;;5018462;28;20061;-75
2022/05/24 10:14:45;;;;;;;6.50;3.85;;;;;;;;;;5014930;28;20050;-75
2022/05/24 10:17:22;;;;;;;6.95;4.00;;;;;;;;;;5014518;28;20046;-75
2022/05/24 10:20:03;;;;;;;8.20;3.50;;;;;;;;;;5014715;28;20053;-78
2022/05/24 10:22:38;;;;;;;6.82;3.78;;;;;;;;;;5014251;28;20425;-78
2022/05/24 10:25:14;;;;;;;7.65;3.50;;;;;;;;;;5014143;28;20497;-75
2022/05/24 10:27:51;;;;;;;9.18;3.90;;;;;;;;;;5014273;28;20064;-76
2022/05/24 10:30:23;;;;;;;6.07;3.38;;;;;;;;;;5015374;28;20054;-77
2022/05/24 10:38:57;;;;;;;5.40;3.30;;;;;;;;;;5018966;28;20172;-75
2022/05/24 10:41:28;;;;;;;5.85;3.20;;;;;;;;;;5014462;28;20481;-75
2022/05/24 10:44:01;;;;;;;7.90;3.40;;;;;;;;;;5018038;28;20038;-75
2022/05/24 10:46:35;;;;;;;8.00;3.50;;;;;;;;;;5022975;28;20042;-75
2022/05/24 10:49:10;;;;;;;5.38;2.75;;;;;;;;;;5014141;28;20108;-75
2022/05/24 10:51:47;;;;;;;6.13;3.10;;;;;;;;;;5020284;28;20045;-76
2022/05/24 10:54:25;;;;;;;6.32;3.50;;;;;;;;;;5028624;28;20129;-75
2022/05/24 10:56:55;;;;;;;6.32;2.70;;;;;;;;;;5014320;28;20096;-74
2022/05/24 10:59:32;;;;;;;6.38;3.47;;;;;;;;;;5027116;28;20049;-75
2022/05/24 11:02:07;;;;;;;7.18;3.78;;;;;;;;;;5033905;28;20045;-74
2022/05/24 11:04:46;;;;;;;7.35;3.55;;;;;;;;;;5033293;28;20045;-76
2022/05/24 11:07:18;;;;;;;7.88;3.50;;;;;;;;;;5050888;28;20045;-73
2022/05/24 11:09:52;;;;;;;6.63;3.30;;;;;;;;;;5023653;28;20057;-73
2022/05/24 11:12:24;;;;;;;5.70;3.40;;;;;;;;;;5030996;28;20080;-73
2022/05/24 11:14:55;;;;;;;5.85;3.20;;;;;;;;;;5032547;28;20400;-73
2022/05/24 11:17:22;;;;;;;6.68;2.80;;;;;;;;;;5032402;28;20049;-73
2022/05/24 11:19:53;;;;;;;6.18;3.25;;;;;;;;;;5032087;28;20672;-73
2022/05/24 11:22:29;;;;;;;6.47;3.60;;;;;;;;;;5031871;28;20049;-73
2022/05/24 11:25:02;;;;;;;6.45;3.75;;;;;;;;;;5032117;28;20051;-73
2022/05/24 11:27:33;;;;;;;7.15;4.07;;;;;;;;;;5030988;28;20116;-75
2022/05/24 11:30:08;;;;;;;7.25;3.55;;;;;;;;;;5032169;28;20504;-75
2022/05/24 11:32:39;;;;;;;8.00;4.05;;;;;;;;;;5032234;28;20361;-75
2022/05/24 11:35:12;;;;;;;8.38;3.78;;;;;;;;;;5028297;28;20049;-74
2022/05/24 11:37:42;;;;;;;8.25;3.72;;;;;;;;;;5027225;28;20053;-74
2022/05/24 11:40:32;;;;;;;7.53;4.18;;;;;;;;;;5031767;28;20064;-73
2022/05/24 11:43:00;;;;;;;7.53;5.05;;;;;;;;;;5027764;28;20458;-73
2022/05/24 11:45:58;;;;;;;8.93;4.43;;;;;;;;;;5031906;28;20137;-74
2022/05/24 11:48:49;;;;;;;8.90;4.20;;;;;;;;;;5032065;28;20122;-74
2022/05/24 11:51:43;;;;;;;6.50;4.90;;;;;;;;;;5030610;28;20095;-73
2022/05/24 11:54:43;;;;;;;8.02;4.82;;;;;;;;;;5020793;28;20260;-74
2022/05/24 11:57:26;;;;;;;6.50;3.90;;;;;;;;;;5020972;28;20072;-74
2022/05/24 11:59:54;;;;;;;7.20;4.25;;;;;;;;;;5012374;28;20046;-74
2022/05/24 12:08:35;;;;;;;14.32;11.57;;;;;;;;;;5011640;28;20057;-73
2022/05/24 12:11:15;;;;;;;12.30;8.23;;;;;;;;;;5011400;28;20106;-73
2022/05/24 12:14:34;;;;;;;8.23;5.37;;;;;;;;;;5011579;28;20049;-73
2022/05/24 12:17:14;;;;;;;11.75;7.72;;;;;;;;;;4950592;29;20051;-73
2022/05/24 12:19:50;;;;;;;8.63;4.68;;;;;;;;;;5010925;28;20050;-74
2022/05/24 12:22:17;;;;;;;18.63;16.30;;;;;;;;;;5011022;28;20049;-74
2022/05/24 12:24:52;;;;;;;8.70;3.58;;;;;;;;;;5010394;28;20053;-73
2022/05/24 12:27:55;;;;;;;6.03;2.67;;;;;;;;;;5019426;28;20044;-75
2022/05/24 12:30:46;;;;;;;7.63;2.75;;;;;;;;;;5026348;28;20900;-74
2022/05/24 12:33:21;;;;;;;3.00;1.50;;;;;;;;;;5041857;28;20053;-75
2022/05/24 12:35:54;;;;;;;3.83;1.60;;;;;;;;;;5050418;28;20041;-75
2022/05/24 12:38:25;;;;;;;3.63;1.85;;;;;;;;;;5051055;28;20041;-74
2022/05/24 12:41:05;;;;;;;;;;;;;;;;;;5050900;28;20095;-75
2022/05/24 12:43:32;;;;;;;7.27;3.90;;;;;;;;;;5050871;28;20380;-75
2022/05/24 12:46:01;;;;;;;8.10;3.22;;;;;;;;;;5050689;28;20045;-75
2022/05/24 12:48:35;;;;;;;8.05;3.60;;;;;;;;;;5011328;28;20042;-74
2022/05/24 12:51:04;;;;;;;3.85;1.98;;;;;;;;;;5010972;28;20049;-74
2022/05/24 12:53:31;;;;;;;5.28;2.70;;;;;;;;;;5011200;28;20104;-74
2022/05/24 12:56:02;;;;;;;3.70;1.75;;;;;;;;;;5010913;28;20061;-74
2022/05/24 12:58:35;;;;;;;7.05;3.13;;;;;;;;;;5022906;28;20091;-74
2022/05/24 13:01:17;;;;;;;6.93;3.72;;;;;;;;;;5030351;28;20079;-74
2022/05/24 13:03:47;;;;;;;18.38;15.68;;;;;;;;;;5025318;28;20092;-74
2022/05/24 13:06:22;;;;;;;30.87;26.00;;;;;;;;;;5010745;28;20052;-74
2022/05/24 13:08:49;;;;;;;24.10;17.52;;;;;;;;;;5011004;28;20532;-73
2022/05/24 13:11:17;;;;;;;5.53;2.90;;;;;;;;;;5011133;28;20112;-74
2022/05/24 13:13:44;;;;;;;5.85;2.70;;;;;;;;;;5011665;28;20088;-73
2022/05/24 13:16:11;;;;;;;6.18;2.53;;;;;;;;;;5013675;28;20052;-73
2022/05/24 13:18:48;;;;;;;5.75;2.10;;;;;;;;;;5020036;28;20041;-73
2022/05/24 13:21:22;;;;;;;4.45;1.90;;;;;;;;;;5027194;28;20041;-73
2022/05/24 13:23:49;;;;;;;4.65;2.03;;;;;;;;;;5031276;28;20046;-73
2022/05/24 13:26:19;;;;;;;4.57;2.20;;;;;;;;;;5030528;28;20049;-73
2022/05/24 13:28:49;;;;;;;3.97;1.98;;;;;;;;;;5030379;28;20096;-74
2022/05/24 13:34:13;;;;;;;7.63;3.55;;;;;;;;;;5030058;28;20076;-73
2022/05/24 13:36:43;;;;;;;9.45;4.40;;;;;;;;;;5029275;28;20056;-72
2022/05/24 13:39:20;;;;;;;7.60;3.30;;;;;;;;;;5030393;28;20057;-73
2022/05/24 13:41:57;;;;;;;6.25;3.10;;;;;;;;;;5029880;28;20086;-72
2022/05/24 13:44:29;;;;;;;5.30;2.95;;;;;;;;;;5030336;28;20045;-72
2022/05/24 13:47:00;;;;;;;7.97;3.55;;;;;;;;;;5022273;28;20188;-72
2022/05/24 13:49:28;;;;;;;;;;;;;;;;;;5010946;28;20156;-72
2022/05/24 13:51:54;;;;;;;6.97;2.60;;;;;;;;;;5009950;28;19927;-75
2022/05/24 13:54:37;;;;;;;7.20;2.50;;;;;;;;;;5019062;28;20054;-73
2022/05/24 13:57:07;;;;;;;9.02;2.50;;;;;;;;;;5029866;28;20045;-72
2022/05/24 13:59:34;;;;;;;5.00;2.47;;;;;;;;;;5030832;28;20079;-72
2022/05/24 14:02:11;;;;;;;5.00;2.63;;;;;;;;;;5049710;28;20650;-75
2022/05/24 14:04:41;;;;;;;4.72;2.83;;;;;;;;;;5049843;28;20064;-73
2022/05/24 14:07:11;;;;;;;5.35;2.67;;;;;;;;;;5050127;28;20729;-73
2022/05/24 14:09:38;;;;;;;6.60;3.00;;;;;;;;;;5049321;28;20110;-73
2022/05/24 14:12:08;;;;;;;7.18;3.33;;;;;;;;;;5049024;28;20052;-73
2022/05/24 14:14:37;;;;;;;5.88;2.70;;;;;;;;;;5049208;28;20495;-74
2022/05/24 14:17:06;;;;;;;5.82;2.47;;;;;;;;;;5049235;28;20507;-73
2022/05/24 14:19:33;;;;;;;5.32;2.80;;;;;;;;;;5036663;28;20050;-73
2022/05/24 14:22:00;;;;;;;6.20;3.10;;;;;;;;;;5040911;28;20045;-74
2022/05/24 14:24:29;;;;;;;6.10;2.78;;;;;;;;;;5049613;28;20508;-74
2022/05/24 14:27:00;;;;;;;8.82;5.38;;;;;;;;;;5033949;28;20122;-73
2022/05/24 14:29:30;;;;;;;6.55;3.90;;;;;;;;;;5028144;28;20049;-74
2022/05/24 14:31:57;;;;;;;8.18;3.67;;;;;;;;;;5026915;28;20041;-73
2022/05/24 14:34:24;;;;;;;6.22;3.28;;;;;;;;;;5010154;28;20046;-73
2022/05/24 14:36:52;;;;;;;4.53;2.90;;;;;;;;;;5009642;28;20120;-73
2022/05/24 14:39:19;;;;;;;4.45;2.70;;;;;;;;;;5014845;28;20045;-73
2022/05/24 14:41:47;;;;;;;4.72;3.05;;;;;;;;;;5029454;28;20054;-73
2022/05/24 14:44:19;;;;;;;5.30;2.85;;;;;;;;;;5029603;28;20075;-73
2022/05/24 14:46:47;;;;;;;5.25;3.08;;;;;;;;;;5023539;28;20056;-73
2022/05/24 14:49:14;;;;;;;6.38;3.10;;;;;;;;;;5013012;28;20077;-74
2022/05/24 14:51:47;;;;;;;4.55;2.78;;;;;;;;;;5019304;28;20077;-73
2022/05/24 14:54:14;;;;;;;6.30;2.70;;;;;;;;;;5033313;28;20045;-74
2022/05/24 14:56:41;;;;;;;25.23;16.15;;;;;;;;;;5023285;28;20041;-74
2022/05/24 15:01:55;;;;;;;9.13;4.93;;;;;;;;;;5072979;28;20048;-80
2022/05/24 15:04:22;;;;;;;8.95;5.05;;;;;;;;;;5069698;28;20450;-80
2022/05/24 15:06:51;;;;;;;5.40;3.88;;;;;;;;;;5058393;28;20052;-79
2022/05/24 15:17:48;;;;;;;8.85;3.65;;;;;;;;;;4979020;28;20062;-79
2022/05/24 15:20:17;;;;;;;13.25;4.18;;;;;;;;;;5002040;28;20413;-80
2022/05/24 15:22:48;;;;;;;8.70;4.10;;;;;;;;;;5016066;28;20207;-79
2022/05/24 15:25:16;;;;;;;;;;;;;;;;;;5019217;28;20053;-79
2022/05/24 15:27:43;;;;;;;7.38;3.97;;;;;;;;;;5015988;28;19929;-78
2022/05/24 15:30:12;;;;;;;8.93;4.68;;;;;;;;;;5017257;28;20058;-80
2022/05/24 15:32:39;;;;;;;8.70;4.20;;;;;;;;;;5014714;28;20060;-79
2022/05/24 15:35:08;;;;;;;6.50;4.13;;;;;;;;;;5013821;28;20408;-79
2022/05/24 15:37:36;;;;;;;9.57;4.68;;;;;;;;;;5015758;28;20104;-79
2022/05/24 15:40:04;;;;;;;7.75;4.50;;;;;;;;;;5020953;28;20050;-80
2022/05/24 15:42:33;;;;;;;6.68;4.03;;;;;;;;;;5016937;28;20489;-79
2022/05/24 15:45:00;;;;;;;7.75;4.15;;;;;;;;;;5016085;28;20049;-80
2022/05/24 15:47:27;;;;;;;9.73;4.43;;;;;;;;;;5012556;28;20068;-79
2022/05/24 15:49:54;;;;;;;7.30;4.22;;;;;;;;;;5014229;28;20067;-79
2022/05/24 15:52:23;;;;;;;13.40;5.88;;;;;;;;;;5017189;28;20041;-78